Time;durP1;ratioP1;P1;durP2;ratioP2;P2;SDS_P1;SDS_P2;PMS_P1;PMS_P2;Temp;Humidity;BMP_temperature;BMP_pressure;BME280_temperature;BME280_humidity;BME280_pressure;Samples;Min_cycle;Max_cycle;Signal;HPM_P1;HPM_P2
2022/02/15 00:00:52;;;;;;;;;;;22.80;30.30;;;;;;5086968;28;19967;-64
2022/02/15 00:03:19;;;;;;;;;;;22.80;30.30;;;;;;5087832;28;19924;-64
2022/02/15 00:05:46;;;;;;;;;;;22.80;30.30;;;;;;5086585;28;20022;-64
2022/02/15 00:08:13;;;;;;;;;;;22.80;30.20;;;;;;5016543;28;1997901;-64
2022/02/15 00:10:40;;;;;;;;;;;22.80;30.30;;;;;;5088183;28;20011;-64
2022/02/15 00:13:07;;;;;;;;;;;22.80;30.30;;;;;;5070278;28;19964;-64
2022/02/15 00:15:34;;;;;;;;;;;22.80;30.30;;;;;;5088490;28;20280;-64
2022/02/15 00:18:01;;;;;;;;;;;22.80;30.20;;;;;;5086507;28;20006;-64
2022/02/15 00:20:28;;;;;;;;;;;22.80;30.20;;;;;;5088813;28;19978;-64
2022/02/15 00:22:55;;;;;;;;;;;22.80;30.20;;;;;;5069456;28;19928;-64
2022/02/15 00:25:22;;;;;;;;;;;22.80;30.20;;;;;;5088400;28;20019;-64
2022/02/15 00:27:50;;;;;;;;;;;22.80;30.20;;;;;;5087701;28;20309;-64
2022/02/15 00:30:17;;;;;;;;;;;22.80;30.20;;;;;;5087809;28;20251;-64
2022/02/15 00:32:44;;;;;;;;;;;22.80;30.20;;;;;;5087866;28;19988;-64
2022/02/15 00:35:11;;;;;;;;;;;22.70;30.20;;;;;;5087677;28;20137;-64
2022/02/15 00:37:39;;;;;;;;;;;22.80;30.20;;;;;;5087297;28;20336;-64
2022/02/15 00:40:06;;;;;;;;;;;22.80;30.20;;;;;;5087922;28;20285;-64
2022/02/15 00:42:33;;;;;;;;;;;22.80;30.20;;;;;;5086920;28;19928;-64
2022/02/15 00:45:01;;;;;;;;;;;22.80;30.20;;;;;;5088051;28;19974;-64
2022/02/15 00:47:28;;;;;;;;;;;22.80;30.20;;;;;;5086557;28;20197;-64
2022/02/15 00:49:55;;;;;;;;;;;22.80;30.20;;;;;;5087880;28;19931;-64
2022/02/15 00:52:22;;;;;;;;;;;22.80;30.20;;;;;;5086930;28;20020;-65
2022/02/15 00:54:49;;;;;;;;;;;22.70;30.10;;;;;;5087400;28;19954;-64
2022/02/15 00:57:16;;;;;;;;;;;22.70;30.20;;;;;;5086728;28;19985;-64
2022/02/15 00:59:43;;;;;;;;;;;22.70;30.20;;;;;;5087803;28;20019;-64
2022/02/15 01:02:11;;;;;;;;;;;22.70;30.20;;;;;;5086993;28;20129;-64
2022/02/15 01:04:38;;;;;;;;;;;22.80;30.30;;;;;;5087507;28;20015;-64
2022/02/15 01:07:05;;;;;;;;;;;22.70;30.20;;;;;;5086508;28;19977;-64
2022/02/15 01:09:32;;;;;;;;;;;22.70;30.20;;;;;;5087644;28;19924;-64
2022/02/15 01:11:59;;;;;;;;;;;22.70;30.20;;;;;;5086196;28;20525;-64
2022/02/15 01:14:26;;;;;;;;;;;22.70;30.20;;;;;;5087419;28;19943;-64
2022/02/15 01:16:53;;;;;;;;;;;22.80;30.20;;;;;;5086017;28;20018;-64
2022/02/15 01:19:20;;;;;;;;;;;22.80;30.20;;;;;;5087485;28;20035;-64
2022/02/15 01:21:47;;;;;;;;;;;22.80;30.20;;;;;;5086283;28;20435;-64
2022/02/15 01:24:14;;;;;;;;;;;22.80;30.20;;;;;;5087076;28;20034;-65
2022/02/15 01:26:41;;;;;;;;;;;22.70;30.10;;;;;;5068756;28;20023;-64
2022/02/15 01:29:10;;;;;;;;;;;22.70;30.10;;;;;;5086997;28;19924;-64
2022/02/15 01:31:37;;;;;;;;;;;22.70;30.10;;;;;;5068158;28;20453;-64
2022/02/15 01:34:04;;;;;;;;;;;22.70;30.10;;;;;;5087409;28;20355;-64
2022/02/15 01:36:31;;;;;;;;;;;22.70;30.10;;;;;;5086214;28;19981;-64
2022/02/15 01:38:58;;;;;;;;;;;22.70;30.10;;;;;;5087692;28;19971;-64
2022/02/15 01:41:25;;;;;;;;;;;22.70;30.10;;;;;;5085824;28;19989;-64
2022/02/15 01:43:52;;;;;;;;;;;22.70;30.10;;;;;;5087124;28;19971;-64
2022/02/15 01:46:19;;;;;;;;;;;22.70;30.10;;;;;;5085781;28;20400;-64
2022/02/15 01:48:47;;;;;;;;;;;22.70;30.10;;;;;;5086829;28;20018;-64
2022/02/15 01:51:15;;;;;;;;;;;22.70;30.10;;;;;;5086223;28;19975;-64
2022/02/15 01:53:42;;;;;;;;;;;22.70;30.10;;;;;;5086177;28;19983;-64
2022/02/15 01:56:10;;;;;;;;;;;22.70;30.10;;;;;;5086198;28;20011;-64
2022/02/15 01:58:38;;;;;;;;;;;22.70;30.10;;;;;;5086996;28;20019;-64
2022/02/15 02:01:05;;;;;;;;;;;22.70;30.10;;;;;;5085523;28;20014;-64
2022/02/15 02:03:32;;;;;;;;;;;22.70;30.10;;;;;;5086588;28;19931;-64
2022/02/15 02:05:59;;;;;;;;;;;22.70;30.10;;;;;;5085868;28;19950;-64
2022/02/15 02:08:27;;;;;;;;;;;22.70;30.10;;;;;;5068218;28;19982;-64
2022/02/15 02:10:55;;;;;;;;;;;22.70;30.10;;;;;;5086177;28;19931;-64
2022/02/15 02:13:22;;;;;;;;;;;22.70;30.10;;;;;;5086079;28;19971;-64
2022/02/15 02:15:49;;;;;;;;;;;22.70;30.10;;;;;;5068063;28;19924;-64
2022/02/15 02:18:41;;;;;;;;;;;22.70;30.10;;;;;;5085551;28;20023;-64
2022/02/15 02:21:09;;;;;;;;;;;22.70;30.20;;;;;;5086414;28;20361;-64
2022/02/15 02:23:35;;;;;;;;;;;22.70;30.20;;;;;;5086411;28;20426;-67
2022/02/15 02:26:02;;;;;;;;;;;22.70;30.20;;;;;;5085858;28;19967;-65
2022/02/15 02:28:31;;;;;;;;;;;22.60;30.10;;;;;;5084810;28;19928;-64
2022/02/15 02:30:58;;;;;;;;;;;22.70;30.20;;;;;;5074446;28;20476;-64
2022/02/15 02:33:25;;;;;;;;;;;22.70;30.20;;;;;;5086252;28;19924;-64
2022/02/15 02:35:59;;;;;;;;;;;22.70;30.20;;;;;;5085971;28;19970;-64
2022/02/15 02:38:26;;;;;;;;;;;22.70;30.20;;;;;;5086398;28;19967;-64
2022/02/15 02:40:53;;;;;;;;;;;22.70;30.20;;;;;;5086035;28;19932;-64
2022/02/15 02:43:20;;;;;;;;;;;22.70;30.10;;;;;;5085360;28;19975;-64
2022/02/15 02:45:47;;;;;;;;;;;22.60;30.10;;;;;;5086470;28;20430;-64
2022/02/15 02:48:16;;;;;;;;;;;22.70;30.10;;;;;;5084890;28;20047;-64
2022/02/15 02:50:43;;;;;;;;;;;22.70;30.10;;;;;;5086409;28;19924;-64
2022/02/15 02:53:11;;;;;;;;;;;22.70;30.10;;;;;;5085207;28;20404;-64
2022/02/15 02:55:38;;;;;;;;;;;22.60;30.10;;;;;;5086452;28;20344;-64
2022/02/15 02:58:05;;;;;;;;;;;22.70;30.10;;;;;;5085815;28;19985;-64
2022/02/15 03:00:32;;;;;;;;;;;22.70;30.20;;;;;;5068821;28;19974;-64
2022/02/15 03:03:04;;;;;;;;;;;22.60;30.00;;;;;;5089297;28;19924;-64
2022/02/15 03:05:31;;;;;;;;;;;22.70;30.10;;;;;;5089700;28;20019;-64
2022/02/15 03:07:58;;;;;;;;;;;22.70;30.10;;;;;;5088966;28;19932;-64
2022/02/15 03:10:25;;;;;;;;;;;22.70;30.10;;;;;;5090058;28;19957;-64
2022/02/15 03:12:52;;;;;;;;;;;22.70;30.10;;;;;;5088838;28;20377;-64
2022/02/15 03:15:19;;;;;;;;;;;22.70;30.10;;;;;;5089909;28;19924;-64
2022/02/15 03:17:46;;;;;;;;;;;22.70;30.10;;;;;;5088847;28;19981;-64
2022/02/15 03:20:25;;;;;;;;;;;22.70;30.10;;;;;;5089815;28;19924;-64
2022/02/15 03:22:52;;;;;;;;;;;22.70;30.10;;;;;;5089195;28;19970;-64
2022/02/15 03:25:19;;;;;;;;;;;22.70;30.10;;;;;;5089958;28;20023;-64
2022/02/15 03:27:46;;;;;;;;;;;22.60;30.00;;;;;;5089249;28;19967;-64
2022/02/15 03:30:13;;;;;;;;;;;22.70;30.10;;;;;;5088946;28;19967;-64
2022/02/15 03:32:42;;;;;;;;;;;22.70;30.10;;;;;;5089346;28;19960;-64
2022/02/15 03:35:09;;;;;;;;;;;22.70;30.10;;;;;;5088932;28;19930;-64
2022/02/15 03:37:36;;;;;;;;;;;22.60;30.00;;;;;;5087716;28;20446;-64
2022/02/15 03:40:03;;;;;;;;;;;22.60;30.00;;;;;;5089549;28;19990;-65
2022/02/15 03:45:19;;;;;;;;;;;22.60;30.10;;;;;;5089437;28;20328;-64
2022/02/15 03:47:46;;;;;;;;;;;22.60;30.10;;;;;;5088427;28;19972;-64
2022/02/15 03:50:13;;;;;;;;;;;22.60;30.10;;;;;;5088709;28;20042;-65
2022/02/15 03:52:40;;;;;;;;;;;22.60;30.10;;;;;;5088446;28;20026;-64
2022/02/15 03:55:07;;;;;;;;;;;22.60;30.10;;;;;;5088550;28;20223;-64
2022/02/15 03:57:35;;;;;;;;;;;22.70;30.10;;;;;;5088279;28;20376;-64
2022/02/15 04:00:04;;;;;;;;;;;22.70;30.10;;;;;;5071142;28;19930;-64
2022/02/15 04:02:31;;;;;;;;;;;22.70;30.10;;;;;;5088078;28;20309;-64
2022/02/15 04:04:58;;;;;;;;;;;22.70;30.10;;;;;;5088853;28;19924;-64
2022/02/15 04:07:25;;;;;;;;;;;22.70;30.10;;;;;;5088094;28;19924;-64
2022/02/15 04:09:52;;;;;;;;;;;22.70;30.10;;;;;;5088996;28;19928;-64
2022/02/15 04:12:19;;;;;;;;;;;22.70;30.10;;;;;;5068488;28;20458;-64
2022/02/15 04:14:46;;;;;;;;;;;22.60;30.00;;;;;;5088773;28;19975;-64
2022/02/15 04:17:13;;;;;;;;;;;22.60;30.00;;;;;;5069808;28;19982;-64
2022/02/15 04:19:40;;;;;;;;;;;22.60;30.00;;;;;;5088385;28;20033;-64
2022/02/15 04:22:08;;;;;;;;;;;22.60;30.10;;;;;;5087704;28;20019;-64
2022/02/15 04:24:35;;;;;;;;;;;22.60;30.00;;;;;;5069958;28;19946;-64
2022/02/15 04:27:02;;;;;;;;;;;22.60;30.00;;;;;;5087602;28;20023;-64
2022/02/15 04:29:29;;;;;;;;;;;22.60;30.00;;;;;;5088372;28;19924;-64
2022/02/15 04:31:56;;;;;;;;;;;22.60;30.00;;;;;;5087469;28;20366;-67
2022/02/15 04:34:23;;;;;;;;;;;22.60;30.00;;;;;;5088416;28;20259;-64
2022/02/15 04:36:50;;;;;;;;;;;22.60;30.00;;;;;;5086940;28;19974;-64
2022/02/15 04:39:17;;;;;;;;;;;22.60;30.00;;;;;;5088085;28;19924;-64
2022/02/15 04:41:44;;;;;;;;;;;22.60;30.00;;;;;;5087060;28;19927;-64
2022/02/15 04:44:11;;;;;;;;;;;22.60;30.00;;;;;;5069355;28;20319;-64
2022/02/15 04:46:38;;;;;;;;;;;22.60;30.00;;;;;;5087859;28;19924;-64
2022/02/15 04:49:05;;;;;;;;;;;22.60;30.00;;;;;;5087690;28;20028;-65
2022/02/15 04:51:32;;;;;;;;;;;22.60;30.10;;;;;;5087303;28;20355;-64
2022/02/15 04:53:59;;;;;;;;;;;22.60;30.00;;;;;;5087762;28;19924;-64
2022/02/15 04:56:26;;;;;;;;;;;22.60;30.10;;;;;;5086916;28;19959;-64
2022/02/15 04:58:53;;;;;;;;;;;22.60;30.00;;;;;;5088126;28;20466;-64
2022/02/15 05:01:21;;;;;;;;;;;22.60;30.10;;;;;;5086955;28;20479;-64
2022/02/15 05:03:54;;;;;;;;;;;22.60;30.10;;;;;;5087821;28;19930;-64
2022/02/15 05:06:21;;;;;;;;;;;22.50;30.10;;;;;;5086304;28;20030;-65
2022/02/15 05:08:48;;;;;;;;;;;22.50;30.10;;;;;;5087818;28;20473;-64
2022/02/15 05:11:15;;;;;;;;;;;22.60;30.20;;;;;;5086781;28;20559;-64
2022/02/15 05:13:42;;;;;;;;;;;22.60;30.10;;;;;;5087071;28;19986;-64
2022/02/15 05:16:08;;;;;;;;;;;22.60;30.10;;;;;;5086414;28;19924;-65
2022/02/15 05:18:36;;;;;;;;;;;22.50;30.10;;;;;;5069149;28;20015;-64
2022/02/15 05:21:06;;;;;;;;;;;22.50;30.10;;;;;;5086546;28;20361;-65
2022/02/15 05:23:42;;;;;;;;;;;22.60;30.10;;;;;;5086910;28;20417;-64
2022/02/15 05:26:09;;;;;;;;;;;22.60;30.10;;;;;;5086089;28;20022;-64
2022/02/15 05:28:36;;;;;;;;;;;22.60;30.10;;;;;;5087419;28;19981;-64
2022/02/15 05:31:03;;;;;;;;;;;22.60;30.10;;;;;;5086934;28;19924;-64
2022/02/15 05:33:30;;;;;;;;;;;22.60;30.10;;;;;;5087326;28;20011;-64
2022/02/15 05:35:57;;;;;;;;;;;22.60;30.10;;;;;;5086455;28;19924;-64
2022/02/15 05:38:24;;;;;;;;;;;22.50;30.00;;;;;;5084454;28;19959;-64
2022/02/15 05:40:51;;;;;;;;;;;22.50;30.00;;;;;;5085116;28;20006;-64
2022/02/15 05:43:18;;;;;;;;;;;22.50;30.00;;;;;;5082006;28;19935;-64
2022/02/15 05:45:49;;;;;;;;;;;22.50;30.00;;;;;;5086801;28;20317;-64
2022/02/15 05:51:20;;;;;;;;;;;22.50;30.00;;;;;;5086117;28;19924;-65
2022/02/15 05:53:47;;;;;;;;;;;22.50;30.00;;;;;;5067436;28;19951;-65
2022/02/15 05:56:13;;;;;;;;;;;22.50;30.00;;;;;;5096285;28;19929;-65
2022/02/15 05:58:40;;;;;;;;;;;22.50;30.00;;;;;;5087133;28;19924;-64
2022/02/15 06:01:09;;;;;;;;;;;22.50;30.00;;;;;;5086617;28;19971;-65
2022/02/15 06:06:23;;;;;;;;;;;22.50;30.00;;;;;;5090107;28;19981;-66
2022/02/15 06:08:51;;;;;;;;;;;22.50;30.10;;;;;;5089146;28;19924;-66
2022/02/15 06:11:18;;;;;;;;;;;22.50;30.10;;;;;;5089817;28;19974;-66
2022/02/15 06:13:45;;;;;;;;;;;22.50;30.10;;;;;;5090090;28;19970;-66
2022/02/15 06:16:12;;;;;;;;;;;22.50;30.10;;;;;;5090182;28;19993;-63
2022/02/15 06:18:39;;;;;;;;;;;22.50;30.10;;;;;;5071090;28;19928;-64
2022/02/15 06:21:06;;;;;;;;;;;22.50;30.20;;;;;;5089258;28;20368;-65
2022/02/15 06:23:33;;;;;;;;;;;22.50;30.10;;;;;;5088807;28;20462;-65
2022/02/15 06:26:06;;;;;;;;;;;22.60;30.30;;;;;;5088386;28;20017;-65
2022/02/15 06:28:33;;;;;;;;;;;22.60;30.20;;;;;;5089049;28;20336;-64
2022/02/15 06:31:00;;;;;;;;;;;22.60;30.20;;;;;;5082816;28;20266;-64
2022/02/15 06:33:26;;;;;;;;;;;22.70;30.20;;;;;;5079209;28;19950;-65
2022/02/15 06:35:54;;;;;;;;;;;22.70;30.10;;;;;;5090566;28;20377;-65
2022/02/15 06:38:22;;;;;;;;;;;22.80;30.00;;;;;;5081453;28;19936;-64
2022/02/15 06:40:50;;;;;;;;;;;22.90;30.00;;;;;;5089978;28;19932;-64
2022/02/15 06:43:17;;;;;;;;;;;22.90;30.00;;;;;;5080124;28;19971;-64
2022/02/15 06:45:44;;;;;;;;;;;23.00;29.90;;;;;;5053788;28;20464;-64
2022/02/15 06:48:12;;;;;;;;;;;23.10;29.90;;;;;;5079674;28;19932;-64
2022/02/15 06:50:39;;;;;;;;;;;23.10;29.80;;;;;;5076866;28;19989;-64
2022/02/15 06:53:07;;;;;;;;;;;23.20;29.80;;;;;;5083990;28;19981;-64
2022/02/15 06:55:54;;;;;;;;;;;23.20;29.80;;;;;;5072488;28;20359;-67
2022/02/15 06:58:27;;;;;;;;;;;23.30;30.00;;;;;;5082817;28;20196;-66
2022/02/15 07:00:54;;;;;;;;;;;23.30;30.30;;;;;;5087399;28;19924;-65
2022/02/15 07:10:15;;;;;;;;;;;23.60;30.70;;;;;;5092209;28;19935;-67
2022/02/15 07:12:42;;;;;;;;;;;23.60;30.60;;;;;;5087650;28;19993;-66
2022/02/15 07:15:09;;;;;;;;;;;23.60;30.50;;;;;;5088941;28;19969;-65
2022/02/15 07:17:37;;;;;;;;;;;23.70;30.40;;;;;;5091268;28;19970;-67
2022/02/15 07:20:06;;;;;;;;;;;23.70;30.40;;;;;;5092741;28;20393;-66
2022/02/15 07:22:33;;;;;;;;;;;23.70;30.50;;;;;;5092617;28;19950;-65
2022/02/15 07:25:01;;;;;;;;;;;23.70;30.60;;;;;;5091560;28;20377;-65
2022/02/15 07:27:29;;;;;;;;;;;23.70;30.70;;;;;;5092040;28;19928;-68
2022/02/15 07:29:56;;;;;;;;;;;23.70;30.60;;;;;;5091786;28;20011;-66
2022/02/15 07:32:24;;;;;;;;;;;23.70;30.60;;;;;;5091851;28;19928;-65
2022/02/15 07:34:51;;;;;;;;;;;23.70;30.70;;;;;;5090308;28;19924;-64
2022/02/15 07:37:19;;;;;;;;;;;23.70;30.70;;;;;;5090791;28;19956;-69
2022/02/15 07:39:45;;;;;;;;;;;23.80;30.70;;;;;;5090720;28;20015;-66
2022/02/15 07:42:13;;;;;;;;;;;23.70;30.60;;;;;;5091188;28;19931;-63
2022/02/15 07:44:40;;;;;;;;;;;23.80;30.70;;;;;;5089327;28;20427;-67
2022/02/15 07:47:07;;;;;;;;;;;23.80;30.70;;;;;;5091384;28;19924;-69
2022/02/15 07:49:34;;;;;;;;;;;23.80;30.80;;;;;;5091116;28;19954;-68
2022/02/15 07:52:02;;;;;;;;;;;23.80;30.80;;;;;;5073099;28;20452;-68
2022/02/15 07:54:29;;;;;;;;;;;23.80;30.90;;;;;;5089467;28;20300;-67
2022/02/15 07:56:56;;;;;;;;;;;23.80;30.80;;;;;;5091314;28;19930;-66
2022/02/15 07:59:23;;;;;;;;;;;23.90;30.80;;;;;;5090840;28;20369;-65
2022/02/15 08:01:50;;;;;;;;;;;23.90;30.70;;;;;;5092101;28;20001;-71
2022/02/15 08:04:17;;;;;;;;;;;23.90;30.80;;;;;;5089023;28;19924;-65
2022/02/15 08:06:45;;;;;;;;;;;23.90;30.80;;;;;;5090299;28;19950;-66
2022/02/15 08:09:14;;;;;;;;;;;23.90;30.80;;;;;;5091239;28;19928;-65
2022/02/15 08:11:42;;;;;;;;;;;24.00;30.80;;;;;;5090955;28;19924;-65
2022/02/15 08:14:09;;;;;;;;;;;24.10;31.00;;;;;;5088504;28;19928;-67
2022/02/15 08:16:37;;;;;;;;;;;24.10;30.90;;;;;;5090834;28;20018;-64
2022/02/15 08:19:04;;;;;;;;;;;24.10;30.90;;;;;;5089277;28;20347;-65
2022/02/15 08:21:31;;;;;;;;;;;24.10;30.90;;;;;;5088264;28;19928;-65
2022/02/15 08:24:05;;;;;;;;;;;24.10;30.90;;;;;;5088654;28;19924;-69
2022/02/15 08:26:32;;;;;;;;;;;24.20;31.10;;;;;;5084184;28;20018;-67
2022/02/15 08:28:59;;;;;;;;;;;24.20;31.20;;;;;;5074562;28;20269;-64
2022/02/15 08:31:27;;;;;;;;;;;24.30;31.50;;;;;;5074516;28;19935;-64
2022/02/15 08:33:54;;;;;;;;;;;24.30;31.50;;;;;;5085741;28;20007;-65
2022/02/15 08:36:21;;;;;;;;;;;24.30;31.60;;;;;;5082197;28;19950;-67
2022/02/15 08:38:48;;;;;;;;;;;24.30;31.50;;;;;;5085311;28;19924;-65
2022/02/15 08:41:15;;;;;;;;;;;24.30;31.50;;;;;;5088850;28;19928;-63
2022/02/15 08:46:52;;;;;;;;;;;24.30;31.30;;;;;;5078608;28;19932;-65
2022/02/15 08:49:19;;;;;;;;;;;24.30;31.30;;;;;;5085396;28;19931;-61
2022/02/15 08:51:46;;;;;;;;;;;24.30;31.30;;;;;;5084221;28;19935;-62
2022/02/15 08:54:13;;;;;;;;;;;24.40;31.30;;;;;;5079770;28;19999;-62
2022/02/15 08:56:41;;;;;;;;;;;24.40;31.30;;;;;;5081627;28;20015;-61
2022/02/15 08:59:08;;;;;;;;;;;24.40;31.30;;;;;;5081088;28;20394;-62
2022/02/15 09:01:35;;;;;;;;;;;24.40;31.30;;;;;;5088397;28;19925;-62
2022/02/15 09:04:02;;;;;;;;;;;24.40;31.30;;;;;;5084052;28;19924;-61
2022/02/15 09:06:38;;;;;;;;;;;24.40;31.30;;;;;;5083726;28;19971;-61
2022/02/15 09:09:05;;;;;;;;;;;24.50;31.30;;;;;;5085298;28;19924;-61
2022/02/15 09:11:32;;;;;;;;;;;24.50;31.20;;;;;;5089192;28;20349;-68
2022/02/15 09:13:59;;;;;;;;;;;24.50;31.20;;;;;;5082746;28;19928;-65
2022/02/15 09:16:26;;;;;;;;;;;24.50;31.20;;;;;;5061235;28;19932;-65
2022/02/15 09:22:41;;;;;;;;;;;24.60;31.30;;;;;;5089466;28;19935;-65
2022/02/15 09:25:10;;;;;;;;;;;24.60;31.40;;;;;;5087927;28;19924;-63
2022/02/15 09:27:37;;;;;;;;;;;24.60;31.50;;;;;;5082594;28;19939;-69
2022/02/15 09:30:05;;;;;;;;;;;24.60;31.50;;;;;;5069900;28;19964;-62
2022/02/15 09:32:32;;;;;;;;;;;24.60;31.50;;;;;;5069649;28;20348;-62
2022/02/15 09:34:59;;;;;;;;;;;24.70;31.60;;;;;;5069350;28;19924;-62
2022/02/15 09:37:26;;;;;;;;;;;24.70;31.70;;;;;;5074324;28;19924;-63
2022/02/15 09:39:55;;;;;;;;;;;24.70;31.60;;;;;;5086853;28;19924;-65
2022/02/15 09:42:23;;;;;;;;;;;24.70;31.50;;;;;;5089298;28;20040;-64
2022/02/15 09:44:50;;;;;;;;;;;24.80;31.60;;;;;;5089912;28;19924;-63
2022/02/15 09:47:22;;;;;;;;;;;24.80;31.60;;;;;;5086454;28;19924;-65
2022/02/15 09:49:50;;;;;;;;;;;24.80;31.40;;;;;;5088206;28;19981;-64
2022/02/15 09:52:18;;;;;;;;;;;24.80;31.20;;;;;;5089516;28;19924;-66
2022/02/15 09:54:46;;;;;;;;;;;24.80;31.10;;;;;;5089496;28;20360;-65
2022/02/15 09:57:13;;;;;;;;;;;24.80;31.10;;;;;;5085936;28;20035;-65
2022/02/15 09:59:41;;;;;;;;;;;24.90;31.10;;;;;;5086748;28;19924;-65
2022/02/15 10:02:12;;;;;;;;;;;24.90;31.10;;;;;;5089931;28;20022;-64
2022/02/15 10:04:39;;;;;;;;;;;24.90;31.10;;;;;;5089826;28;20014;-66
2022/02/15 10:07:07;;;;;;;;;;;24.90;31.10;;;;;;5087965;28;19924;-66
2022/02/15 10:09:35;;;;;;;;;;;24.90;31.00;;;;;;5088144;28;19964;-64
2022/02/15 10:12:04;;;;;;;;;;;24.90;30.90;;;;;;5092955;28;19971;-63
2022/02/15 10:14:34;;;;;;;;;;;24.90;30.80;;;;;;5093936;28;19928;-63
2022/02/15 10:17:01;;;;;;;;;;;24.90;30.90;;;;;;5092370;28;19954;-68
2022/02/15 10:19:30;;;;;;;;;;;24.90;30.90;;;;;;5091520;28;19971;-68
2022/02/15 10:22:02;;;;;;;;;;;24.90;30.90;;;;;;5093490;28;19966;-68
2022/02/15 10:24:30;;;;;;;;;;;24.90;30.90;;;;;;5092350;28;20312;-63
2022/02/15 10:26:59;;;;;;;;;;;24.90;30.90;;;;;;5092178;28;19928;-63
2022/02/15 10:29:27;;;;;;;;;;;25.00;31.00;;;;;;5088362;28;19924;-64
2022/02/15 10:31:58;;;;;;;;;;;25.00;31.10;;;;;;5093402;28;20131;-69
2022/02/15 10:34:26;;;;;;;;;;;25.00;31.20;;;;;;5093413;28;20003;-66
2022/02/15 10:37:01;;;;;;;;;;;25.00;31.10;;;;;;5093195;28;19924;-67
2022/02/15 10:39:40;;;;;;;;;;;25.00;31.10;;;;;;5088439;28;20315;-63
2022/02/15 10:42:08;;;;;;;;;;;25.10;31.10;;;;;;5091966;28;19924;-65
2022/02/15 10:44:47;;;;;;;;;;;25.10;31.00;;;;;;5092442;28;19924;-67
2022/02/15 10:47:14;;;;;;;;;;;25.10;31.00;;;;;;5092116;28;20413;-68
2022/02/15 10:49:42;;;;;;;;;;;25.10;30.90;;;;;;5077859;28;20365;-66
2022/02/15 10:52:10;;;;;;;;;;;25.10;30.80;;;;;;5072774;28;19978;-66
2022/02/15 10:54:38;;;;;;;;;;;25.10;30.90;;;;;;5072719;28;19924;-66
2022/02/15 10:57:09;;;;;;;;;;;25.10;30.80;;;;;;5072877;28;20457;-66
2022/02/15 10:59:36;;;;;;;;;;;25.10;30.80;;;;;;5071730;28;19925;-67
2022/02/15 11:02:03;;;;;;;;;;;25.10;30.70;;;;;;5072631;28;19924;-68
2022/02/15 11:04:32;;;;;;;;;;;25.10;30.60;;;;;;5083962;28;19924;-66
2022/02/15 11:07:05;;;;;;;;;;;25.20;30.60;;;;;;5086185;28;21091;-72
2022/02/15 11:09:48;;;;;;;;;;;25.20;30.50;;;;;;5087146;28;19989;-69
2022/02/15 11:12:32;;;;;;;;;;;25.20;30.30;;;;;;5098968;28;20027;-69
2022/02/15 11:15:05;;;;;;;;;;;25.20;30.20;;;;;;5096029;28;19955;-73
2022/02/15 11:17:32;;;;;;;;;;;25.20;30.00;;;;;;5083583;28;20028;-70
2022/02/15 11:20:02;;;;;;;;;;;25.20;30.00;;;;;;5088394;28;20039;-70
2022/02/15 11:22:29;;;;;;;;;;;25.20;29.90;;;;;;5079767;28;19997;-69
2022/02/15 11:24:57;;;;;;;;;;;25.20;29.90;;;;;;5086082;28;20344;-70
2022/02/15 11:27:24;;;;;;;;;;;25.20;29.80;;;;;;5085684;28;19932;-70
2022/02/15 11:29:57;;;;;;;;;;;25.20;29.70;;;;;;5086031;28;21175;-72
2022/02/15 11:32:25;;;;;;;;;;;25.20;29.70;;;;;;5085533;28;19924;-72
2022/02/15 11:34:53;;;;;;;;;;;25.20;29.60;;;;;;5089478;28;20332;-68
2022/02/15 11:37:22;;;;;;;;;;;25.20;29.60;;;;;;5083401;28;20028;-67
2022/02/15 11:43:21;;;;;;;;;;;25.20;29.50;;;;;;5073862;28;19993;-66
2022/02/15 11:45:48;;;;;;;;;;;25.20;29.50;;;;;;5090854;28;20289;-73
2022/02/15 11:48:15;;;;;;;;;;;25.30;29.60;;;;;;5084521;28;19924;-72
2022/02/15 11:50:44;;;;;;;;;;;25.30;29.70;;;;;;5092268;28;19985;-74
2022/02/15 11:53:16;;;;;;;;;;;25.30;29.70;;;;;;5091064;28;19951;-69
2022/02/15 11:55:44;;;;;;;;;;;25.20;29.60;;;;;;5091150;28;19969;-68
2022/02/15 11:58:12;;;;;;;;;;;25.30;29.70;;;;;;5083932;28;19924;-69
2022/02/15 12:00:39;;;;;;;;;;;25.30;29.70;;;;;;5091311;28;20393;-68
2022/02/15 12:03:07;;;;;;;;;;;25.30;29.60;;;;;;5087352;28;19924;-68
2022/02/15 12:05:42;;;;;;;;;;;25.30;29.40;;;;;;5072054;28;20330;-69
2022/02/15 12:08:09;;;;;;;;;;;25.30;29.40;;;;;;5087834;28;19932;-68
2022/02/15 12:10:36;;;;;;;;;;;25.30;29.40;;;;;;5090906;28;19927;-68
2022/02/15 12:13:04;;;;;;;;;;;25.40;29.40;;;;;;5090199;28;19931;-70
2022/02/15 12:15:34;;;;;;;;;;;25.30;29.20;;;;;;5091418;28;20006;-69
2022/02/15 12:18:02;;;;;;;;;;;25.40;29.20;;;;;;5084708;28;19931;-70
2022/02/15 12:20:30;;;;;;;;;;;25.40;29.20;;;;;;5110281;28;19969;-68
2022/02/15 12:22:57;;;;;;;;;;;25.40;29.10;;;;;;5093574;28;19923;-71
2022/02/15 12:25:23;;;;;;;;;;;25.40;29.20;;;;;;5112021;28;19924;-67
2022/02/15 12:27:51;;;;;;;;;;;25.40;29.10;;;;;;5110056;28;19967;-69
2022/02/15 12:30:18;;;;;;;;;;;25.40;29.10;;;;;;5089178;28;19971;-67
2022/02/15 12:32:46;;;;;;;;;;;25.40;29.10;;;;;;5081269;28;20112;-69
2022/02/15 12:35:27;;;;;;;;;;;25.50;29.00;;;;;;5088926;28;19924;-65
2022/02/15 12:37:59;;;;;;;;;;;25.50;29.00;;;;;;5084458;28;20313;-64
2022/02/15 12:40:26;;;;;;;;;;;25.40;28.90;;;;;;5085514;28;19924;-69
2022/02/15 12:42:53;;;;;;;;;;;25.50;29.00;;;;;;5079178;28;20003;-64
2022/02/15 12:45:20;;;;;;;;;;;25.40;29.00;;;;;;5090013;28;20015;-66
2022/02/15 12:47:47;;;;;;;;;;;25.50;29.10;;;;;;5086094;28;19972;-64
2022/02/15 12:50:15;;;;;;;;;;;25.50;29.00;;;;;;5084583;28;19932;-64
2022/02/15 12:52:42;;;;;;;;;;;25.50;29.10;;;;;;5063947;28;20026;-63
2022/02/15 12:55:12;;;;;;;;;;;25.60;29.10;;;;;;5088301;28;19977;-65
2022/02/15 12:57:40;;;;;;;;;;;25.60;29.20;;;;;;5079459;28;20347;-64
2022/02/15 13:00:09;;;;;;;;;;;25.60;29.20;;;;;;5072942;28;20164;-65
2022/02/15 13:02:36;;;;;;;;;;;25.60;29.10;;;;;;5083633;28;19942;-65
2022/02/15 13:05:06;;;;;;;;;;;25.60;29.20;;;;;;5086564;28;19987;-68
2022/02/15 13:07:43;;;;;;;;;;;25.60;29.10;;;;;;5087936;28;20021;-64
2022/02/15 13:10:10;;;;;;;;;;;25.70;29.20;;;;;;5089125;28;19943;-61
2022/02/15 13:12:37;;;;;;;;;;;25.70;29.30;;;;;;5080874;28;19932;-64
2022/02/15 13:15:04;;;;;;;;;;;25.70;29.20;;;;;;5101820;28;19986;-65
2022/02/15 13:17:40;;;;;;;;;;;25.70;29.30;;;;;;5089898;28;20354;-65
2022/02/15 13:20:22;;;;;;;;;;;25.70;29.30;;;;;;5105338;28;19956;-69
2022/02/15 13:22:53;;;;;;;;;;;25.70;29.30;;;;;;5081438;28;19968;-66
2022/02/15 13:25:20;;;;;;;;;;;25.70;29.30;;;;;;5089539;28;19975;-64
2022/02/15 13:27:48;;;;;;;;;;;25.80;29.30;;;;;;5087595;28;20043;-65
2022/02/15 13:30:20;;;;;;;;;;;25.80;29.40;;;;;;5104043;28;19977;-64
2022/02/15 13:33:04;;;;;;;;;;;25.80;29.40;;;;;;5079373;28;19948;-66
2022/02/15 13:35:32;;;;;;;;;;;25.80;29.40;;;;;;5089615;28;20003;-66
2022/02/15 13:37:59;;;;;;;;;;;25.80;29.40;;;;;;5088906;28;19978;-66
2022/02/15 13:40:27;;;;;;;;;;;25.80;29.20;;;;;;5088175;28;19967;-67
2022/02/15 13:42:56;;;;;;;;;;;25.80;29.20;;;;;;5081364;28;20037;-64
2022/02/15 13:45:23;;;;;;;;;;;25.80;29.20;;;;;;5087969;28;19939;-67
2022/02/15 13:47:50;;;;;;;;;;;25.80;29.20;;;;;;5089838;28;20404;-68
2022/02/15 13:50:17;;;;;;;;;;;25.80;29.20;;;;;;5089197;28;20028;-65
2022/02/15 13:52:45;;;;;;;;;;;25.80;29.10;;;;;;5085302;28;20673;-65
2022/02/15 13:55:13;;;;;;;;;;;25.80;29.10;;;;;;5087540;28;20387;-65
2022/02/15 13:57:41;;;;;;;;;;;25.80;29.20;;;;;;5088481;28;19931;-70
2022/02/15 14:00:10;;;;;;;;;;;25.80;29.20;;;;;;5104888;28;19924;-77
2022/02/15 14:02:42;;;;;;;;;;;25.80;29.10;;;;;;5088197;28;20286;-68
2022/02/15 14:05:10;;;;;;;;;;;25.80;29.10;;;;;;5071563;28;19951;-69
2022/02/15 14:07:38;;;;;;;;;;;25.80;29.20;;;;;;5069597;28;20007;-68
2022/02/15 14:10:06;;;;;;;;;;;25.80;29.50;;;;;;5051068;28;20015;-69
2022/02/15 14:12:40;;;;;;;;;;;25.70;29.30;;;;;;5070580;28;19938;-66
2022/02/15 14:15:08;;;;;;;;;;;25.70;29.20;;;;;;5088400;28;20400;-70
2022/02/15 14:17:41;;;;;;;;;;;25.80;29.30;;;;;;5089184;28;19928;-71
2022/02/15 14:20:24;;;;;;;;;;;25.80;29.40;;;;;;5089166;28;19985;-69
2022/02/15 14:22:51;;;;;;;;;;;25.80;29.40;;;;;;5085470;28;19935;-69
2022/02/15 14:25:19;;;;;;;;;;;25.80;29.40;;;;;;5087744;28;19977;-69
2022/02/15 14:27:46;;;;;;;;;;;25.80;29.40;;;;;;5089220;28;19931;-65
2022/02/15 14:30:14;;;;;;;;;;;25.80;29.90;;;;;;5087729;28;19924;-70
2022/02/15 14:32:42;;;;;;;;;;;25.80;29.50;;;;;;5086750;28;19982;-72
2022/02/15 14:35:09;;;;;;;;;;;25.80;29.50;;;;;;5087800;28;19940;-72
2022/02/15 14:37:36;;;;;;;;;;;25.80;29.50;;;;;;5089064;28;19931;-68
2022/02/15 14:40:05;;;;;;;;;;;25.80;29.60;;;;;;5087389;28;19977;-70
2022/02/15 14:42:36;;;;;;;;;;;25.80;29.60;;;;;;5088041;28;19985;-68
2022/02/15 14:45:04;;;;;;;;;;;25.80;29.60;;;;;;5087191;28;20322;-67
2022/02/15 14:47:31;;;;;;;;;;;25.80;29.60;;;;;;5089282;28;19947;-68